sensor_id;sensor_type;location;lat;lon;timestamp;pressure;altitude;pressure_sealevel;temperature;humidity
22031;BME280;11179;52.106;21.024;2023-01-05T00:02:03;99363.59;;;7.54;76.38
22031;BME280;11179;52.106;21.024;2023-01-05T00:04:28;99363.34;;;7.55;75.92
22031;BME280;11179;52.106;21.024;2023-01-05T00:06:53;99360.63;;;7.55;76.18
22031;BME280;11179;52.106;21.024;2023-01-05T00:09:19;99359.28;;;7.58;75.99
22031;BME280;11179;52.106;21.024;2023-01-05T00:11:44;99332.72;;;7.53;76.26
22031;BME280;11179;52.106;21.024;2023-01-05T00:14:29;99351.06;;;7.58;76.34
22031;BME280;11179;52.106;21.024;2023-01-05T00:17:21;99346.97;;;7.60;76.66
22031;BME280;11179;52.106;21.024;2023-01-05T00:20:13;99340.41;;;7.61;76.50
22031;BME280;11179;52.106;21.024;2023-01-05T00:22:57;99338.25;;;7.63;76.47
22031;BME280;11179;52.106;21.024;2023-01-05T00:25:25;99317.22;;;7.64;76.27
22031;BME280;11179;52.106;21.024;2023-01-05T00:27:51;99324.34;;;7.65;76.52
22031;BME280;11179;52.106;21.024;2023-01-05T00:30:27;99328.19;;;7.69;76.21
22031;BME280;11179;52.106;21.024;2023-01-05T00:32:53;99325.19;;;7.71;76.27
22031;BME280;11179;52.106;21.024;2023-01-05T00:35:19;99333.41;;;7.76;76.30
22031;BME280;11179;52.106;21.024;2023-01-05T00:37:45;99324.13;;;7.77;76.09
22031;BME280;11179;52.106;21.024;2023-01-05T00:40:13;99325.19;;;7.76;76.07
22031;BME280;11179;52.106;21.024;2023-01-05T00:42:39;99320.59;;;7.81;76.12
22031;BME280;11179;52.106;21.024;2023-01-05T00:45:10;99326.88;;;7.82;76.27
22031;BME280;11179;52.106;21.024;2023-01-05T00:47:36;99316.47;;;7.79;76.14
22031;BME280;11179;52.106;21.024;2023-01-05T00:50:02;99315.97;;;7.82;76.09
22031;BME280;11179;52.106;21.024;2023-01-05T00:52:27;99304.22;;;7.81;76.23
22031;BME280;11179;52.106;21.024;2023-01-05T00:54:52;99298.75;;;7.81;75.99
22031;BME280;11179;52.106;21.024;2023-01-05T00:57:18;99302.56;;;7.80;76.21
22031;BME280;11179;52.106;21.024;2023-01-05T00:59:43;99300.94;;;7.84;76.10
22031;BME280;11179;52.106;21.024;2023-01-05T01:02:09;99299.03;;;7.85;76.18
22031;BME280;11179;52.106;21.024;2023-01-05T01:04:34;99299.56;;;7.87;76.00
22031;BME280;11179;52.106;21.024;2023-01-05T01:07:00;99295.75;;;7.88;76.04
22031;BME280;11179;52.106;21.024;2023-01-05T01:09:26;99296.31;;;7.90;75.88
22031;BME280;11179;52.106;21.024;2023-01-05T01:11:52;99284.56;;;7.89;75.85
22031;BME280;11179;52.106;21.024;2023-01-05T01:14:17;99285.91;;;7.87;75.76
22031;BME280;11179;52.106;21.024;2023-01-05T01:16:43;99287.00;;;7.86;76.04
22031;BME280;11179;52.106;21.024;2023-01-05T01:19:27;99273.06;;;7.87;76.01
22031;BME280;11179;52.106;21.024;2023-01-05T01:21:53;99270.34;;;7.87;76.11
22031;BME280;11179;52.106;21.024;2023-01-05T01:24:24;99276.06;;;7.86;76.27
22031;BME280;11179;52.106;21.024;2023-01-05T01:26:50;99267.59;;;7.87;76.37
22031;BME280;11179;52.106;21.024;2023-01-05T01:29:16;99250.94;;;7.89;76.11
22031;BME280;11179;52.106;21.024;2023-01-05T01:31:42;99249.84;;;7.90;75.90
22031;BME280;11179;52.106;21.024;2023-01-05T01:34:07;99243.28;;;7.91;76.14
22031;BME280;11179;52.106;21.024;2023-01-05T01:36:32;99237.81;;;7.86;76.29
22031;BME280;11179;52.106;21.024;2023-01-05T01:38:58;99244.09;;;7.86;76.21
22031;BME280;11179;52.106;21.024;2023-01-05T01:41:23;99237.81;;;7.86;76.41
22031;BME280;11179;52.106;21.024;2023-01-05T01:43:51;99237.28;;;7.84;76.32
22031;BME280;11179;52.106;21.024;2023-01-05T01:46:18;99224.44;;;7.84;76.32
22031;BME280;11179;52.106;21.024;2023-01-05T01:49:04;99212.13;;;7.82;76.61
22031;BME280;11179;52.106;21.024;2023-01-05T01:51:39;99219.50;;;7.86;76.40
22031;BME280;11179;52.106;21.024;2023-01-05T01:54:10;99211.31;;;7.91;76.42
22031;BME280;11179;52.106;21.024;2023-01-05T01:56:51;99195.19;;;7.85;76.37
22031;BME280;11179;52.106;21.024;2023-01-05T01:59:17;99180.16;;;7.87;76.63
22031;BME280;11179;52.106;21.024;2023-01-05T02:01:43;99183.97;;;7.86;76.80
22031;BME280;11179;52.106;21.024;2023-01-05T02:04:09;99189.19;;;7.93;76.70
22031;BME280;11179;52.106;21.024;2023-01-05T02:06:36;99190.84;;;7.94;76.54
22031;BME280;11179;52.106;21.024;2023-01-05T02:09:02;99185.38;;;7.94;76.68
22031;BME280;11179;52.106;21.024;2023-01-05T02:11:54;99190.81;;;7.99;76.63
22031;BME280;11179;52.106;21.024;2023-01-05T02:20:21;99179.09;;;8.04;76.80
22031;BME280;11179;52.106;21.024;2023-01-05T02:31:29;99168.19;;;8.09;76.59
22031;BME280;11179;52.106;21.024;2023-01-05T02:34:38;99169.00;;;8.14;76.59
22031;BME280;11179;52.106;21.024;2023-01-05T02:37:13;99174.19;;;8.16;76.45
22031;BME280;11179;52.106;21.024;2023-01-05T02:42:19;99167.97;;;8.20;76.64
22031;BME280;11179;52.106;21.024;2023-01-05T02:44:46;99160.84;;;8.24;76.48
22031;BME280;11179;52.106;21.024;2023-01-05T02:49:49;99160.56;;;8.31;76.56
22031;BME280;11179;52.106;21.024;2023-01-05T02:52:17;99156.47;;;8.28;76.49
22031;BME280;11179;52.106;21.024;2023-01-05T02:54:51;99158.69;;;8.37;76.51
22031;BME280;11179;52.106;21.024;2023-01-05T02:57:23;99158.09;;;8.40;76.35
22031;BME280;11179;52.106;21.024;2023-01-05T03:03:00;99149.34;;;8.43;76.28
22031;BME280;11179;52.106;21.024;2023-01-05T03:05:31;99140.09;;;8.39;76.58
22031;BME280;11179;52.106;21.024;2023-01-05T03:07:59;99137.03;;;8.40;76.40
22031;BME280;11179;52.106;21.024;2023-01-05T03:11:09;99129.16;;;8.39;76.36
22031;BME280;11179;52.106;21.024;2023-01-05T03:14:10;99126.94;;;8.35;76.44
22031;BME280;11179;52.106;21.024;2023-01-05T03:16:37;99137.06;;;8.45;76.42
22031;BME280;11179;52.106;21.024;2023-01-05T03:19:09;99137.88;;;8.46;76.21
22031;BME280;11179;52.106;21.024;2023-01-05T03:21:54;99131.31;;;8.47;76.36
22031;BME280;11179;52.106;21.024;2023-01-05T03:24:41;99123.38;;;8.45;76.24
22031;BME280;11179;52.106;21.024;2023-01-05T03:27:28;99129.13;;;8.49;76.06
22031;BME280;11179;52.106;21.024;2023-01-05T03:30:13;99129.13;;;8.49;76.08
22031;BME280;11179;52.106;21.024;2023-01-05T03:33:14;99129.13;;;8.49;76.17
22031;BME280;11179;52.106;21.024;2023-01-05T03:36:02;99126.66;;;8.47;75.87
22031;BME280;11179;52.106;21.024;2023-01-05T03:38:34;99118.19;;;8.44;76.12
22031;BME280;11179;52.106;21.024;2023-01-05T03:41:03;99117.63;;;8.42;75.99
22031;BME280;11179;52.106;21.024;2023-01-05T03:43:33;99116.81;;;8.41;76.18
22031;BME280;11179;52.106;21.024;2023-01-05T03:45:59;99113.81;;;8.43;76.32
22031;BME280;11179;52.106;21.024;2023-01-05T03:48:26;99119.81;;;8.45;76.07
22031;BME280;11179;52.106;21.024;2023-01-05T03:50:52;99107.78;;;8.46;76.03
22031;BME280;11179;52.106;21.024;2023-01-05T03:53:18;99099.56;;;8.41;76.10
22031;BME280;11179;52.106;21.024;2023-01-05T03:55:43;99105.03;;;8.41;76.00
22031;BME280;11179;52.106;21.024;2023-01-05T03:58:09;99095.50;;;8.38;76.03
22031;BME280;11179;52.106;21.024;2023-01-05T04:00:34;99093.03;;;8.37;76.24
22031;BME280;11179;52.106;21.024;2023-01-05T04:02:59;99085.09;;;8.35;76.07
22031;BME280;11179;52.106;21.024;2023-01-05T04:05:25;99086.47;;;8.38;76.28
22031;BME280;11179;52.106;21.024;2023-01-05T04:07:50;99084.00;;;8.36;75.98
22031;BME280;11179;52.106;21.024;2023-01-05T04:10:16;99092.22;;;8.36;76.28
22031;BME280;11179;52.106;21.024;2023-01-05T04:12:41;99094.13;;;8.35;76.19
22031;BME280;11179;52.106;21.024;2023-01-05T04:15:07;99088.66;;;8.35;75.98
22031;BME280;11179;52.106;21.024;2023-01-05T04:17:32;99077.16;;;8.33;76.08
22031;BME280;11179;52.106;21.024;2023-01-05T04:19:58;99076.06;;;8.34;76.14
22031;BME280;11179;52.106;21.024;2023-01-05T04:22:23;99089.47;;;8.41;76.08
22031;BME280;11179;52.106;21.024;2023-01-05T04:24:48;99081.81;;;8.43;76.23
22031;BME280;11179;52.106;21.024;2023-01-05T04:27:13;99103.69;;;8.43;75.92
22031;BME280;11179;52.106;21.024;2023-01-05T04:29:39;99107.25;;;8.39;75.85
22031;BME280;11179;52.106;21.024;2023-01-05T04:32:04;99108.06;;;8.39;76.10
22031;BME280;11179;52.106;21.024;2023-01-05T04:34:30;99089.72;;;8.40;75.93
22031;BME280;11179;52.106;21.024;2023-01-05T04:36:55;99100.13;;;8.43;75.93
22031;BME280;11179;52.106;21.024;2023-01-05T04:39:20;99095.19;;;8.40;75.81
22031;BME280;11179;52.106;21.024;2023-01-05T04:41:46;99102.59;;;8.39;75.91
22031;BME280;11179;52.106;21.024;2023-01-05T04:44:13;99086.44;;;8.43;75.80
22031;BME280;11179;52.106;21.024;2023-01-05T04:46:38;99100.69;;;8.45;75.89
22031;BME280;11179;52.106;21.024;2023-01-05T04:49:03;99108.88;;;8.50;75.92
22031;BME280;11179;52.106;21.024;2023-01-05T04:51:28;99105.59;;;8.43;75.68
22031;BME280;11179;52.106;21.024;2023-01-05T04:53:54;99108.63;;;8.46;75.78
22031;BME280;11179;52.106;21.024;2023-01-05T04:56:19;99108.34;;;8.48;75.96
22031;BME280;11179;52.106;21.024;2023-01-05T04:58:45;99103.41;;;8.45;75.81
22031;BME280;11179;52.106;21.024;2023-01-05T05:01:10;99094.66;;;8.43;75.72
22031;BME280;11179;52.106;21.024;2023-01-05T05:03:35;99099.31;;;8.47;76.09
22031;BME280;11179;52.106;21.024;2023-01-05T05:06:00;99091.09;;;8.42;75.92
22031;BME280;11179;52.106;21.024;2023-01-05T05:08:26;99095.47;;;8.48;76.18
22031;BME280;11179;52.106;21.024;2023-01-05T05:10:51;99099.59;;;8.51;75.79
22031;BME280;11179;52.106;21.024;2023-01-05T05:13:17;99090.84;;;8.49;75.76
22031;BME280;11179;52.106;21.024;2023-01-05T05:15:45;99099.88;;;8.49;76.12
22031;BME280;11179;52.106;21.024;2023-01-05T05:18:10;99088.91;;;8.44;75.87
22031;BME280;11179;52.106;21.024;2023-01-05T05:20:37;99099.31;;;8.42;76.20
22031;BME280;11179;52.106;21.024;2023-01-05T05:23:05;99085.38;;;8.39;76.13
22031;BME280;11179;52.106;21.024;2023-01-05T05:25:30;99085.66;;;8.37;75.78
22031;BME280;11179;52.106;21.024;2023-01-05T05:27:56;99074.97;;;8.30;75.91
22031;BME280;11179;52.106;21.024;2023-01-05T05:30:22;99095.19;;;8.40;76.20
22031;BME280;11179;52.106;21.024;2023-01-05T05:32:47;99077.44;;;8.27;75.85
22031;BME280;11179;52.106;21.024;2023-01-05T05:35:13;99081.25;;;8.26;76.02
22031;BME280;11179;52.106;21.024;2023-01-05T05:37:38;99098.50;;;8.37;76.19
22031;BME280;11179;52.106;21.024;2023-01-05T05:40:07;99100.69;;;8.34;75.66
22031;BME280;11179;52.106;21.024;2023-01-05T05:42:32;99100.69;;;8.34;75.85
22031;BME280;11179;52.106;21.024;2023-01-05T05:44:57;99092.75;;;8.28;75.67
22031;BME280;11179;52.106;21.024;2023-01-05T05:47:23;99092.50;;;8.24;75.43
22031;BME280;11179;52.106;21.024;2023-01-05T05:49:48;99102.31;;;8.25;75.66
22031;BME280;11179;52.106;21.024;2023-01-05T05:52:14;99093.03;;;8.26;75.30
22031;BME280;11179;52.106;21.024;2023-01-05T05:54:39;99104.78;;;8.22;75.45
22031;BME280;11179;52.106;21.024;2023-01-05T05:57:04;99111.09;;;8.22;75.24
22031;BME280;11179;52.106;21.024;2023-01-05T05:59:29;99088.13;;;8.18;75.37
22031;BME280;11179;52.106;21.024;2023-01-05T06:01:55;99092.50;;;8.19;75.19
22031;BME280;11179;52.106;21.024;2023-01-05T06:04:20;99098.72;;;8.15;75.13
22031;BME280;11179;52.106;21.024;2023-01-05T06:06:45;99090.81;;;8.08;75.00
22031;BME280;11179;52.106;21.024;2023-01-05T06:09:11;99097.38;;;8.07;75.11
22031;BME280;11179;52.106;21.024;2023-01-05T06:11:36;99097.38;;;8.02;75.16
22031;BME280;11179;52.106;21.024;2023-01-05T06:14:01;99099.28;;;8.07;74.83
22031;BME280;11179;52.106;21.024;2023-01-05T06:16:27;99085.06;;;7.94;74.91
22031;BME280;11179;52.106;21.024;2023-01-05T06:18:52;99103.94;;;8.06;75.02
22031;BME280;11179;52.106;21.024;2023-01-05T06:21:18;99105.03;;;8.10;75.05
22031;BME280;11179;52.106;21.024;2023-01-05T06:23:45;99102.56;;;8.09;74.97
22031;BME280;11179;52.106;21.024;2023-01-05T06:26:10;99111.59;;;8.09;74.75
22031;BME280;11179;52.106;21.024;2023-01-05T06:28:36;99110.50;;;8.05;74.67
22031;BME280;11179;52.106;21.024;2023-01-05T06:31:01;99112.69;;;8.08;74.59
22031;BME280;11179;52.106;21.024;2023-01-05T06:33:26;99109.41;;;8.06;74.77
22031;BME280;11179;52.106;21.024;2023-01-05T06:35:52;99110.78;;;8.09;74.68
22031;BME280;11179;52.106;21.024;2023-01-05T06:38:17;99103.41;;;8.09;74.48
22031;BME280;11179;52.106;21.024;2023-01-05T06:40:45;99106.69;;;8.11;74.80
22031;BME280;11179;52.106;21.024;2023-01-05T06:43:11;99114.03;;;8.16;74.60
22031;BME280;11179;52.106;21.024;2023-01-05T06:45:36;99115.41;;;8.13;74.76
22031;BME280;11179;52.106;21.024;2023-01-05T06:48:01;99121.44;;;8.10;74.36
22031;BME280;11179;52.106;21.024;2023-01-05T06:50:28;99108.88;;;8.09;74.73
22031;BME280;11179;52.106;21.024;2023-01-05T06:52:54;99112.69;;;8.08;74.63
22031;BME280;11179;52.106;21.024;2023-01-05T06:55:19;99118.13;;;8.13;74.58
22031;BME280;11179;52.106;21.024;2023-01-05T06:57:46;99124.16;;;8.15;74.62
22031;BME280;11179;52.106;21.024;2023-01-05T07:00:12;99130.19;;;8.17;74.47
22031;BME280;11179;52.106;21.024;2023-01-05T07:02:37;99138.38;;;8.17;74.69
22031;BME280;11179;52.106;21.024;2023-01-05T07:05:03;99131.84;;;8.18;74.60
22031;BME280;11179;52.106;21.024;2023-01-05T07:07:28;99132.41;;;8.20;74.82
22031;BME280;11179;52.106;21.024;2023-01-05T07:09:53;99125.59;;;8.23;74.50
22031;BME280;11179;52.106;21.024;2023-01-05T07:12:19;99140.59;;;8.25;74.54
22031;BME280;11179;52.106;21.024;2023-01-05T07:14:44;99137.84;;;8.25;74.49
22031;BME280;11179;52.106;21.024;2023-01-05T07:17:10;99137.88;;;8.30;74.67
22031;BME280;11179;52.106;21.024;2023-01-05T07:19:37;99139.25;;;8.33;74.50
22031;BME280;11179;52.106;21.024;2023-01-05T07:22:02;99137.06;;;8.35;74.29
22031;BME280;11179;52.106;21.024;2023-01-05T07:24:28;99134.06;;;8.37;74.48
22031;BME280;11179;52.106;21.024;2023-01-05T07:26:53;99126.13;;;8.30;74.51
22031;BME280;11179;52.106;21.024;2023-01-05T07:29:18;99128.56;;;8.31;74.36
22031;BME280;11179;52.106;21.024;2023-01-05T07:31:43;99136.78;;;8.37;74.39
22031;BME280;11179;52.106;21.024;2023-01-05T07:34:11;99137.63;;;8.37;74.85
22031;BME280;11179;52.106;21.024;2023-01-05T07:36:37;99142.25;;;8.42;74.82
22031;BME280;11179;52.106;21.024;2023-01-05T07:39:02;99120.66;;;8.45;74.69
22031;BME280;11179;52.106;21.024;2023-01-05T07:41:28;99131.31;;;8.47;74.69
22031;BME280;11179;52.106;21.024;2023-01-05T07:43:53;99135.41;;;8.49;74.48
22031;BME280;11179;52.106;21.024;2023-01-05T07:46:18;99128.59;;;8.52;74.56
22031;BME280;11179;52.106;21.024;2023-01-05T07:48:44;99125.28;;;8.60;74.43
22031;BME280;11179;52.106;21.024;2023-01-05T07:51:10;99126.34;;;8.69;74.27
22031;BME280;11179;52.106;21.024;2023-01-05T07:53:36;99125.53;;;8.74;74.34
22031;BME280;11179;52.106;21.024;2023-01-05T07:56:03;99134.28;;;8.86;74.07
22031;BME280;11179;52.106;21.024;2023-01-05T07:58:30;99128.75;;;8.96;74.00
22031;BME280;11179;52.106;21.024;2023-01-05T08:00:56;99131.50;;;8.96;73.76
22031;BME280;11179;52.106;21.024;2023-01-05T08:03:21;99141.09;;;8.93;73.81
22031;BME280;11179;52.106;21.024;2023-01-05T08:05:47;99137.00;;;8.91;73.54
22031;BME280;11179;52.106;21.024;2023-01-05T08:08:13;99130.44;;;8.92;73.59
22031;BME280;11179;52.106;21.024;2023-01-05T08:10:40;99140.53;;;8.96;73.16
22031;BME280;11179;52.106;21.024;2023-01-05T08:13:07;99157.50;;;8.93;73.20
22031;BME280;11179;52.106;21.024;2023-01-05T08:15:52;99144.66;;;8.94;73.32
22031;BME280;11179;52.106;21.024;2023-01-05T08:18:18;99149.31;;;8.88;73.21
22031;BME280;11179;52.106;21.024;2023-01-05T08:20:55;99161.91;;;8.89;72.99
22031;BME280;11179;52.106;21.024;2023-01-05T08:23:22;99151.50;;;8.86;73.08
22031;BME280;11179;52.106;21.024;2023-01-05T08:25:47;99148.50;;;8.83;72.88
22031;BME280;11179;52.106;21.024;2023-01-05T08:28:13;99144.13;;;8.82;72.94
22031;BME280;11179;52.106;21.024;2023-01-05T08:30:38;99144.13;;;8.82;72.66
22031;BME280;11179;52.106;21.024;2023-01-05T08:33:03;99154.25;;;8.86;72.64
22031;BME280;11179;52.106;21.024;2023-01-05T08:35:29;99155.88;;;8.92;72.57
22031;BME280;11179;52.106;21.024;2023-01-05T08:37:54;99160.56;;;8.92;72.49
22031;BME280;11179;52.106;21.024;2023-01-05T08:40:20;99159.72;;;8.91;72.44
22031;BME280;11179;52.106;21.024;2023-01-05T08:42:45;99169.28;;;8.94;72.12
22031;BME280;11179;52.106;21.024;2023-01-05T08:45:13;99166.00;;;9.02;72.25
22031;BME280;11179;52.106;21.024;2023-01-05T08:47:39;99155.88;;;9.02;72.07
22031;BME280;11179;52.106;21.024;2023-01-05T08:50:05;99162.97;;;9.03;71.80
22031;BME280;11179;52.106;21.024;2023-01-05T08:52:31;99177.19;;;9.05;71.71
22031;BME280;11179;52.106;21.024;2023-01-05T08:54:56;99183.25;;;9.02;71.69
22031;BME280;11179;52.106;21.024;2023-01-05T08:57:22;99173.66;;;9.00;71.65
22031;BME280;11179;52.106;21.024;2023-01-05T08:59:47;99175.00;;;9.07;71.48
22031;BME280;11179;52.106;21.024;2023-01-05T09:02:12;99191.44;;;9.13;71.58
22031;BME280;11179;52.106;21.024;2023-01-05T09:04:37;99182.09;;;9.19;71.52
22031;BME280;11179;52.106;21.024;2023-01-05T09:07:03;99185.91;;;9.28;71.16
22031;BME280;11179;52.106;21.024;2023-01-05T09:09:28;99176.06;;;9.27;70.79
22031;BME280;11179;52.106;21.024;2023-01-05T09:11:53;99187.28;;;9.25;70.75
22031;BME280;11179;52.106;21.024;2023-01-05T09:14:19;99191.66;;;9.21;70.61
22031;BME280;11179;52.106;21.024;2023-01-05T09:16:44;99198.53;;;9.19;70.72
22031;BME280;11179;52.106;21.024;2023-01-05T09:19:10;99195.81;;;9.14;70.74
22031;BME280;11179;52.106;21.024;2023-01-05T09:21:35;99197.72;;;9.13;70.33
22031;BME280;11179;52.106;21.024;2023-01-05T09:24:03;99196.09;;;9.07;70.45
22031;BME280;11179;52.106;21.024;2023-01-05T09:26:29;99225.38;;;9.12;70.30
22031;BME280;11179;52.106;21.024;2023-01-05T09:28:54;99206.22;;;9.06;70.04
22031;BME280;11179;52.106;21.024;2023-01-05T09:31:21;99209.50;;;9.08;70.11
22031;BME280;11179;52.106;21.024;2023-01-05T09:33:47;99208.69;;;9.08;70.26
22031;BME280;11179;52.106;21.024;2023-01-05T09:36:14;99210.31;;;9.14;70.05
22031;BME280;11179;52.106;21.024;2023-01-05T09:38:40;99218.81;;;9.13;69.64
22031;BME280;11179;52.106;21.024;2023-01-05T09:43:42;99223.75;;;9.16;69.78
22031;BME280;11179;52.106;21.024;2023-01-05T09:46:16;99216.06;;;9.13;69.33
22031;BME280;11179;52.106;21.024;2023-01-05T09:48:49;99223.19;;;9.14;69.32
22031;BME280;11179;52.106;21.024;2023-01-05T09:51:16;99230.88;;;9.12;69.28
22031;BME280;11179;52.106;21.024;2023-01-05T09:53:41;99227.56;;;9.10;69.08
22031;BME280;11179;52.106;21.024;2023-01-05T09:56:27;99226.47;;;9.16;69.22
22031;BME280;11179;52.106;21.024;2023-01-05T09:59:22;99233.31;;;9.18;69.50
22031;BME280;11179;52.106;21.024;2023-01-05T10:01:45;99225.34;;;9.22;69.16
22031;BME280;11179;52.106;21.024;2023-01-05T10:04:17;99226.19;;;9.22;69.17
22031;BME280;11179;52.106;21.024;2023-01-05T10:06:48;99226.72;;;9.29;69.22
22031;BME280;11179;52.106;21.024;2023-01-05T10:09:19;99232.75;;;9.31;69.27
22031;BME280;11179;52.106;21.024;2023-01-05T10:14:45;99240.66;;;9.43;69.26
22031;BME280;11179;52.106;21.024;2023-01-05T10:17:14;99230.75;;;9.52;68.65
22031;BME280;11179;52.106;21.024;2023-01-05T10:19:40;99224.19;;;9.58;68.57
22031;BME280;11179;52.106;21.024;2023-01-05T10:24:49;99217.56;;;9.64;67.99
22031;BME280;11179;52.106;21.024;2023-01-05T10:27:34;99223.56;;;9.76;67.57
22031;BME280;11179;52.106;21.024;2023-01-05T10:38:13;99219.53;;;10.13;65.85
22031;BME280;11179;52.106;21.024;2023-01-05T10:45:44;99220.50;;;10.37;65.23
22031;BME280;11179;52.106;21.024;2023-01-05T10:48:15;99232.31;;;10.38;64.96
22031;BME280;11179;52.106;21.024;2023-01-05T10:50:43;99223.03;;;10.29;64.94
22031;BME280;11179;52.106;21.024;2023-01-05T10:53:21;99223.03;;;10.29;64.80
22031;BME280;11179;52.106;21.024;2023-01-05T10:58:27;99234.25;;;10.32;64.41
22031;BME280;11179;52.106;21.024;2023-01-05T11:00:56;99215.69;;;10.19;64.39
22031;BME280;11179;52.106;21.024;2023-01-05T11:03:34;99225.03;;;10.13;64.42
22031;BME280;11179;52.106;21.024;2023-01-05T11:06:02;99228.09;;;10.06;64.27
22031;BME280;11179;52.106;21.024;2023-01-05T11:08:28;99229.53;;;9.89;64.44
22031;BME280;11179;52.106;21.024;2023-01-05T11:11:03;99249.34;;;9.75;64.69
22031;BME280;11179;52.106;21.024;2023-01-05T11:13:32;99255.66;;;9.61;65.11
22031;BME280;11179;52.106;21.024;2023-01-05T11:16:09;99239.50;;;9.64;65.81
22031;BME280;11179;52.106;21.024;2023-01-05T11:21:27;99227.97;;;9.67;65.96
22031;BME280;11179;52.106;21.024;2023-01-05T11:27:00;99226.88;;;9.63;66.13
22031;BME280;11179;52.106;21.024;2023-01-05T11:29:27;99227.16;;;9.67;66.23
22031;BME280;11179;52.106;21.024;2023-01-05T11:31:59;99233.19;;;9.69;66.21
22031;BME280;11179;52.106;21.024;2023-01-05T11:39:59;99230.75;;;9.52;65.79
22031;BME280;11179;52.106;21.024;2023-01-05T11:47:29;99242.50;;;9.63;65.49
22031;BME280;11179;52.106;21.024;2023-01-05T11:52:38;99233.97;;;9.74;65.01
22031;BME280;11179;52.106;21.024;2023-01-05T11:57:45;99241.38;;;9.74;64.80
22031;BME280;11179;52.106;21.024;2023-01-05T12:00:24;99243.88;;;9.70;64.90
22031;BME280;11179;52.106;21.024;2023-01-05T12:05:52;99227.41;;;9.75;64.51
22031;BME280;11179;52.106;21.024;2023-01-05T12:08:28;99234.28;;;9.68;64.34
22031;BME280;11179;52.106;21.024;2023-01-05T12:16:12;99243.88;;;9.60;64.25
22031;BME280;11179;52.106;21.024;2023-01-05T12:21:24;99241.19;;;9.55;64.25
22031;BME280;11179;52.106;21.024;2023-01-05T12:26:42;99243.09;;;9.55;64.50
22031;BME280;11179;52.106;21.024;2023-01-05T12:29:23;99259.25;;;9.56;64.39
22031;BME280;11179;52.106;21.024;2023-01-05T12:41:22;99240.16;;;9.31;64.22
22031;BME280;11179;52.106;21.024;2023-01-05T12:48:46;99239.59;;;9.24;63.84
22031;BME280;11179;52.106;21.024;2023-01-05T12:53:55;99244.84;;;9.15;63.73
22031;BME280;11179;52.106;21.024;2023-01-05T12:56:35;99241.81;;;9.06;63.26
22031;BME280;11179;52.106;21.024;2023-01-05T13:01:30;99249.50;;;8.99;62.93
22031;BME280;11179;52.106;21.024;2023-01-05T13:04:09;99246.19;;;8.92;62.74
22031;BME280;11179;52.106;21.024;2023-01-05T13:06:39;99250.06;;;8.86;62.61
22031;BME280;11179;52.106;21.024;2023-01-05T13:09:19;99266.72;;;8.80;62.75
22031;BME280;11179;52.106;21.024;2023-01-05T13:11:50;99266.75;;;8.75;62.42
22031;BME280;11179;52.106;21.024;2023-01-05T13:14:21;99253.88;;;8.70;62.37
22031;BME280;11179;52.106;21.024;2023-01-05T13:16:53;99256.06;;;8.58;62.32
22031;BME280;11179;52.106;21.024;2023-01-05T13:19:24;99257.69;;;8.54;62.13
22031;BME280;11179;52.106;21.024;2023-01-05T13:21:52;99262.06;;;8.50;61.92
22031;BME280;11179;52.106;21.024;2023-01-05T13:24:26;99263.69;;;8.46;61.88
22031;BME280;11179;52.106;21.024;2023-01-05T13:26:55;99268.06;;;8.42;61.80
22031;BME280;11179;52.106;21.024;2023-01-05T13:29:33;99274.63;;;8.35;61.87
22031;BME280;11179;52.106;21.024;2023-01-05T13:37:55;99282.78;;;8.25;61.87
22031;BME280;11179;52.106;21.024;2023-01-05T13:52:00;99296.63;;;8.04;62.64
22031;BME280;11179;52.106;21.024;2023-01-05T13:54:48;99301.28;;;8.03;62.74
22031;BME280;11179;52.106;21.024;2023-01-05T13:57:22;99289.78;;;7.96;62.91
22031;BME280;11179;52.106;21.024;2023-01-05T13:59:51;99297.16;;;8.00;62.75
22031;BME280;11179;52.106;21.024;2023-01-05T14:02:32;99302.06;;;7.93;63.14
22031;BME280;11179;52.106;21.024;2023-01-05T14:04:58;99303.69;;;7.89;63.45
22031;BME280;11179;52.106;21.024;2023-01-05T14:07:25;99296.78;;;7.77;63.58
22031;BME280;11179;52.106;21.024;2023-01-05T14:09:53;99301.19;;;7.78;63.38
22031;BME280;11179;52.106;21.024;2023-01-05T14:22:56;99304.94;;;7.67;63.36
22031;BME280;11179;52.106;21.024;2023-01-05T14:28:18;99311.75;;;7.64;63.91
22031;BME280;11179;52.106;21.024;2023-01-05T14:30:44;99310.38;;;7.61;63.66
22031;BME280;11179;52.106;21.024;2023-01-05T14:33:10;99308.47;;;7.62;63.92
22031;BME280;11179;52.106;21.024;2023-01-05T14:35:36;99304.09;;;7.61;63.92
22031;BME280;11179;52.106;21.024;2023-01-05T14:38:05;99302.44;;;7.55;64.24
22031;BME280;11179;52.106;21.024;2023-01-05T14:40:54;99315.00;;;7.56;63.92
22031;BME280;11179;52.106;21.024;2023-01-05T14:43:26;99312.28;;;7.61;64.17
22031;BME280;11179;52.106;21.024;2023-01-05T14:48:31;99313.31;;;7.50;64.46
22031;BME280;11179;52.106;21.024;2023-01-05T14:51:20;99311.72;;;7.54;64.35
22031;BME280;11179;52.106;21.024;2023-01-05T14:53:49;99304.59;;;7.53;64.51
22031;BME280;11179;52.106;21.024;2023-01-05T14:56:25;99315.78;;;7.51;64.28
22031;BME280;11179;52.106;21.024;2023-01-05T14:58:57;99310.31;;;7.51;64.39
22031;BME280;11179;52.106;21.024;2023-01-05T15:04:16;99313.63;;;7.53;64.52
22031;BME280;11179;52.106;21.024;2023-01-05T15:09:45;99322.59;;;7.49;64.59
22031;BME280;11179;52.106;21.024;2023-01-05T15:32:31;99316.59;;;7.52;64.53
22031;BME280;11179;52.106;21.024;2023-01-05T15:35:19;99314.13;;;7.50;64.45
22031;BME280;11179;52.106;21.024;2023-01-05T15:37:48;99322.88;;;7.52;64.70
22031;BME280;11179;52.106;21.024;2023-01-05T15:42:52;99321.25;;;7.51;64.81
22031;BME280;11179;52.106;21.024;2023-01-05T15:45:27;99313.84;;;7.47;64.61
22031;BME280;11179;52.106;21.024;2023-01-05T15:47:55;99319.06;;;7.53;64.64
22031;BME280;11179;52.106;21.024;2023-01-05T15:50:23;99336.28;;;7.54;64.89
22031;BME280;11179;52.106;21.024;2023-01-05T15:52:54;99325.06;;;7.50;64.72
22031;BME280;11179;52.106;21.024;2023-01-05T15:55:20;99321.75;;;7.48;65.04